createdAt,value
2022-09-20T00:00:04.064Z,13.17
2022-09-20T00:01:43.836Z,13.17
2022-09-20T00:03:23.612Z,13.17
2022-09-20T00:05:03.371Z,13.13
2022-09-20T00:06:43.130Z,13.12
2022-09-20T00:08:22.926Z,13.13
2022-09-20T00:10:02.679Z,13.12
2022-09-20T00:11:42.466Z,13.09
2022-09-20T00:13:22.212Z,13.1
2022-09-20T00:15:01.996Z,13.08
2022-09-20T00:16:41.752Z,13.07
2022-09-20T00:18:21.507Z,13.05
2022-09-20T00:20:01.284Z,13.06
2022-09-20T00:21:41.056Z,13.04
2022-09-20T00:23:20.833Z,13.03
2022-09-20T00:25:00.592Z,13.01
2022-09-20T00:26:40.353Z,13
2022-09-20T00:28:20.109Z,13
2022-09-20T00:29:59.886Z,12.97
2022-09-20T00:31:39.642Z,12.98
2022-09-20T00:33:19.412Z,12.95
2022-09-20T00:34:59.200Z,12.96
2022-09-20T00:36:38.959Z,12.95
2022-09-20T00:38:18.714Z,12.94
2022-09-20T00:39:58.494Z,12.92
2022-09-20T00:41:38.283Z,12.91
2022-09-20T00:43:18.028Z,12.91
2022-09-20T00:44:57.787Z,12.88
2022-09-20T00:46:37.567Z,12.86
2022-09-20T00:49:57.106Z,12.85
2022-09-20T00:51:36.867Z,12.86
2022-09-20T00:53:16.621Z,12.83
2022-09-20T00:54:56.399Z,12.84
2022-09-20T00:56:36.164Z,12.83
2022-09-20T00:58:15.929Z,12.81
2022-09-20T00:59:55.684Z,12.8
2022-09-20T01:01:35.454Z,12.78
2022-09-20T01:03:15.235Z,12.79
2022-09-20T01:04:55.001Z,12.78
2022-09-20T01:06:34.760Z,12.76
2022-09-20T01:08:14.542Z,12.76
2022-09-20T01:09:54.302Z,12.75
2022-09-20T01:11:34.057Z,12.74
2022-09-20T01:13:13.837Z,12.72
2022-09-20T01:14:53.614Z,12.72
2022-09-20T01:16:33.377Z,12.71
2022-09-20T01:18:13.125Z,12.71
2022-09-20T01:19:52.926Z,12.67
2022-09-20T01:21:32.663Z,12.69
2022-09-20T01:24:52.204Z,12.66
2022-09-20T01:26:31.978Z,12.63
2022-09-20T01:28:11.738Z,12.64
2022-09-20T01:29:51.511Z,12.63
2022-09-20T01:31:31.276Z,12.61
2022-09-20T01:33:11.046Z,12.61
2022-09-20T01:34:50.819Z,12.58
2022-09-20T01:36:30.585Z,12.58
2022-09-20T01:38:10.351Z,12.58
2022-09-20T01:39:50.111Z,12.57
2022-09-20T01:41:29.871Z,12.56
2022-09-20T01:43:09.658Z,12.54
2022-09-20T01:44:49.409Z,12.53
2022-09-20T01:46:29.179Z,12.52
2022-09-20T01:48:08.939Z,12.52
2022-09-20T01:49:48.727Z,12.49
2022-09-20T01:51:28.490Z,12.5
2022-09-20T01:53:08.241Z,12.47
2022-09-20T01:54:48.021Z,12.48
2022-09-20T01:56:27.783Z,12.46
2022-09-20T01:58:07.553Z,12.43
2022-09-20T01:59:47.321Z,12.43
2022-09-20T02:01:27.088Z,12.42
2022-09-20T02:03:06.850Z,12.4
2022-09-20T02:04:46.626Z,12.39
2022-09-20T02:06:26.395Z,12.38
2022-09-20T02:08:06.163Z,12.37
2022-09-20T02:09:45.922Z,12.37
2022-09-20T02:11:25.696Z,12.34
2022-09-20T02:13:05.486Z,12.33
2022-09-20T02:14:45.229Z,12.32
2022-09-20T02:16:24.993Z,12.31
2022-09-20T02:18:04.765Z,12.3
2022-09-20T02:19:44.526Z,12.3
2022-09-20T02:21:24.301Z,12.29
2022-09-20T02:23:04.067Z,12.27
2022-09-20T02:24:43.826Z,12.25
2022-09-20T02:26:23.593Z,12.24
2022-09-20T02:28:03.368Z,12.23
2022-09-20T02:29:43.127Z,12.21
2022-09-20T02:31:22.897Z,12.21
2022-09-20T02:33:02.662Z,12.22
2022-09-20T02:34:42.423Z,12.19
2022-09-20T02:38:01.969Z,12.17
2022-09-20T02:39:41.722Z,12.17
2022-09-20T02:41:21.495Z,12.16
2022-09-20T02:43:01.264Z,12.13
2022-09-20T02:44:41.044Z,12.13
2022-09-20T02:46:20.821Z,12.11
2022-09-20T02:48:00.560Z,12.12
2022-09-20T02:49:40.348Z,12.11
2022-09-20T02:51:20.101Z,12.08
2022-09-20T02:52:59.901Z,12.08
2022-09-20T02:54:39.632Z,12.06
2022-09-20T02:56:19.416Z,12.07
2022-09-20T02:57:59.171Z,12.07
2022-09-20T03:01:18.703Z,12.04
2022-09-20T03:02:58.472Z,12.01
2022-09-20T03:04:38.244Z,12.03
2022-09-20T03:06:18.017Z,12.02
2022-09-20T03:07:57.787Z,11.99
2022-09-20T03:09:37.544Z,11.99
2022-09-20T03:11:17.324Z,11.98
2022-09-20T03:12:57.078Z,11.98
2022-09-20T03:14:36.844Z,11.98
2022-09-20T03:16:16.623Z,11.95
2022-09-20T03:17:56.398Z,11.96
2022-09-20T03:19:36.143Z,11.94
2022-09-20T03:21:15.911Z,11.94
2022-09-20T03:22:55.677Z,11.94
2022-09-20T03:24:35.457Z,11.93
2022-09-20T03:26:15.222Z,11.93
2022-09-20T03:27:54.985Z,11.93
2022-09-20T03:29:34.750Z,11.91
2022-09-20T03:31:14.522Z,11.92
2022-09-20T03:32:54.288Z,11.91
2022-09-20T03:34:34.062Z,11.88
2022-09-20T03:36:13.822Z,11.88
2022-09-20T03:37:53.583Z,11.87
2022-09-20T03:39:33.357Z,11.89
2022-09-20T03:41:13.113Z,11.88
2022-09-20T03:42:52.901Z,11.85
2022-09-20T03:44:32.646Z,11.88
2022-09-20T03:46:12.421Z,11.84
2022-09-20T03:47:52.189Z,11.85
2022-09-20T03:51:11.734Z,11.84
2022-09-20T03:52:51.493Z,11.82
2022-09-20T03:54:31.259Z,11.82
2022-09-20T03:56:11.029Z,11.83
2022-09-20T03:59:30.555Z,11.81
2022-09-20T04:01:10.318Z,11.8
2022-09-20T04:02:50.077Z,11.8
2022-09-20T04:04:29.846Z,11.79
2022-09-20T04:06:09.607Z,11.79
2022-09-20T04:07:49.383Z,11.79
2022-09-20T04:09:29.152Z,11.79
2022-09-20T04:11:08.900Z,11.77
2022-09-20T04:12:48.658Z,11.78
2022-09-20T04:14:28.423Z,11.76
2022-09-20T04:16:08.197Z,11.77
2022-09-20T04:17:47.956Z,11.78
2022-09-20T04:19:27.720Z,11.77
2022-09-20T04:22:47.242Z,11.75
2022-09-20T04:24:27.024Z,11.76
2022-09-20T04:26:06.828Z,11.75
2022-09-20T04:27:46.550Z,11.74
2022-09-20T04:31:06.103Z,11.73
2022-09-20T04:32:45.844Z,11.76
2022-09-20T04:34:25.595Z,11.74
2022-09-20T04:36:05.365Z,11.77
2022-09-20T04:37:45.123Z,11.79
2022-09-20T04:39:24.899Z,11.81
2022-09-20T04:41:04.652Z,11.84
2022-09-20T04:42:44.416Z,11.86
2022-09-20T04:44:24.182Z,11.9
2022-09-20T04:46:03.958Z,11.9
2022-09-20T04:47:43.713Z,11.95
2022-09-20T04:49:23.467Z,11.97
2022-09-20T04:51:03.244Z,12
2022-09-20T04:52:43.005Z,12
2022-09-20T04:54:22.776Z,12.02
2022-09-20T04:56:02.538Z,12.04
2022-09-20T04:57:42.296Z,12.06
2022-09-20T04:59:22.057Z,12.07
2022-09-20T05:01:01.821Z,12.11
2022-09-20T05:02:41.593Z,12.1
2022-09-20T05:04:21.361Z,12.16
2022-09-20T05:06:01.133Z,12.15
2022-09-20T05:07:40.894Z,12.17
2022-09-20T05:09:20.654Z,12.2
2022-09-20T05:11:00.435Z,12.22
2022-09-20T05:12:40.179Z,12.23
2022-09-20T05:14:19.963Z,12.22
2022-09-20T05:15:59.720Z,12.26
2022-09-20T05:17:39.501Z,12.26
2022-09-20T05:19:19.271Z,12.28
2022-09-20T05:20:59.038Z,12.33
2022-09-20T05:22:38.809Z,12.33
2022-09-20T05:24:18.583Z,12.33
2022-09-20T05:25:58.340Z,12.37
2022-09-20T05:27:38.103Z,12.36
2022-09-20T05:29:17.880Z,12.38
2022-09-20T05:30:57.657Z,12.38
2022-09-20T05:32:37.414Z,12.41
2022-09-20T05:34:17.182Z,12.45
2022-09-20T05:35:56.954Z,12.46
2022-09-20T05:37:36.733Z,12.45
2022-09-20T05:39:16.500Z,12.52
2022-09-20T05:40:56.273Z,12.51
2022-09-20T05:42:36.043Z,12.52
2022-09-20T05:44:15.810Z,12.57
2022-09-20T05:45:55.585Z,12.59
2022-09-20T05:47:35.356Z,12.6
2022-09-20T05:49:15.110Z,12.6
2022-09-20T05:50:54.879Z,12.61
2022-09-20T05:52:34.662Z,12.66
2022-09-20T05:54:14.415Z,12.65
2022-09-20T05:57:33.977Z,12.7
2022-09-20T05:59:13.896Z,12.72
2022-09-20T06:00:53.533Z,12.73
2022-09-20T06:02:33.282Z,12.74
2022-09-20T06:04:13.041Z,12.78
2022-09-20T06:05:52.849Z,12.8
2022-09-20T06:07:32.620Z,12.8
2022-09-20T06:09:12.367Z,12.81
2022-09-20T06:10:52.120Z,12.79
2022-09-20T06:12:32.036Z,12.77
2022-09-20T06:14:11.730Z,12.79
2022-09-20T06:15:51.467Z,12.8
2022-09-20T06:17:31.202Z,12.81
2022-09-20T06:19:10.980Z,12.77
2022-09-20T06:20:50.742Z,12.82
2022-09-20T06:22:30.511Z,12.82
2022-09-20T06:24:10.292Z,12.85
2022-09-20T06:25:50.080Z,12.87
2022-09-20T06:27:29.831Z,12.87
2022-09-20T06:29:09.595Z,12.9
2022-09-20T06:30:49.383Z,13.01
2022-09-20T06:32:29.256Z,13.1
2022-09-20T06:34:08.923Z,13.2
2022-09-20T06:35:48.761Z,13.31
2022-09-20T06:37:28.458Z,13.43
2022-09-20T06:39:08.225Z,13.54
2022-09-20T06:40:48.006Z,13.6
2022-09-20T06:42:27.755Z,13.72
2022-09-20T06:44:07.521Z,13.8
2022-09-20T06:45:47.324Z,13.87
2022-09-20T06:47:27.061Z,13.94
2022-09-20T06:49:06.835Z,14.05
2022-09-20T06:50:46.656Z,14.1
2022-09-20T06:52:26.401Z,14.19
2022-09-20T06:54:06.216Z,14.25
2022-09-20T06:55:45.925Z,14.33
2022-09-20T06:57:25.682Z,14.4
2022-09-20T06:59:05.460Z,14.45
2022-09-20T07:00:45.233Z,14.53
2022-09-20T07:02:25.002Z,14.62
2022-09-20T07:04:04.789Z,14.65
2022-09-20T07:05:44.550Z,14.72
2022-09-20T07:07:24.319Z,14.8
2022-09-20T07:09:04.076Z,14.82
2022-09-20T07:10:43.882Z,14.88
2022-09-20T07:12:23.629Z,14.98
2022-09-20T07:14:03.379Z,15
2022-09-20T07:15:43.154Z,15.1
2022-09-20T07:17:22.923Z,15.13
2022-09-20T07:19:02.719Z,15.21
2022-09-20T07:20:42.559Z,15.25
2022-09-20T07:22:22.234Z,15.28
2022-09-20T07:24:02.012Z,15.31
2022-09-20T07:25:41.769Z,15.36
2022-09-20T07:27:21.552Z,15.43
2022-09-20T07:29:01.317Z,15.48
2022-09-20T07:30:41.087Z,15.5
2022-09-20T07:32:20.861Z,15.57
2022-09-20T07:34:00.672Z,15.6
2022-09-20T07:35:40.397Z,15.62
2022-09-20T07:37:20.158Z,15.71
2022-09-20T07:38:59.942Z,15.73
2022-09-20T07:40:39.702Z,15.77
2022-09-20T07:42:19.573Z,15.81
2022-09-20T07:43:59.330Z,15.83
2022-09-20T07:45:39.023Z,15.9
2022-09-20T07:47:18.786Z,15.92
2022-09-20T07:48:58.555Z,15.98
2022-09-20T07:50:38.323Z,15.98
2022-09-20T07:52:18.111Z,16.02
2022-09-20T07:53:57.880Z,16.04
2022-09-20T07:55:37.646Z,16.1
2022-09-20T07:57:17.421Z,16.1
2022-09-20T07:58:57.176Z,16.15
2022-09-20T08:00:36.964Z,16.17
2022-09-20T08:02:16.730Z,16.21
2022-09-20T08:03:56.489Z,16.21
2022-09-20T08:05:36.262Z,16.25
2022-09-20T08:07:16.044Z,16.25
2022-09-20T08:08:55.816Z,16.29
2022-09-20T08:10:35.578Z,16.32
2022-09-20T08:12:15.352Z,16.35
2022-09-20T08:13:55.127Z,16.36
2022-09-20T08:15:34.894Z,16.4
2022-09-20T08:17:14.651Z,16.41
2022-09-20T08:18:54.425Z,16.45
2022-09-20T08:20:34.207Z,16.46
2022-09-20T08:22:13.964Z,16.48
2022-09-20T08:23:53.743Z,16.49
2022-09-20T08:25:33.510Z,16.53
2022-09-20T08:27:13.277Z,16.53
2022-09-20T08:28:53.047Z,16.54
2022-09-20T08:32:12.601Z,16.61
2022-09-20T08:33:52.359Z,16.62
2022-09-20T08:37:11.921Z,16.65
2022-09-20T08:38:51.675Z,16.7
2022-09-20T08:40:31.468Z,16.71
2022-09-20T08:42:11.209Z,16.7
2022-09-20T08:43:50.987Z,16.75
2022-09-20T08:45:30.765Z,16.79
2022-09-20T08:47:10.524Z,16.79
2022-09-20T08:48:50.282Z,16.84
2022-09-20T08:50:30.069Z,16.86
2022-09-20T08:52:09.838Z,16.9
2022-09-20T08:53:49.595Z,16.92
2022-09-20T08:55:29.375Z,16.93
2022-09-20T08:57:09.154Z,16.98
2022-09-20T08:58:48.907Z,16.98
2022-09-20T09:00:28.695Z,17.02
2022-09-20T09:02:08.456Z,17.02
2022-09-20T09:03:48.235Z,17.04
2022-09-20T09:05:28.007Z,17.08
2022-09-20T09:07:07.761Z,17.1
2022-09-20T09:08:47.542Z,17.12
2022-09-20T09:10:27.303Z,17.12
2022-09-20T09:12:07.088Z,17.15
2022-09-20T09:13:46.851Z,17.17
2022-09-20T09:15:26.620Z,17.19
2022-09-20T09:17:06.384Z,17.23
2022-09-20T09:18:46.169Z,17.25
2022-09-20T09:22:05.699Z,17.31
2022-09-20T09:23:45.472Z,17.33
2022-09-20T09:25:25.262Z,17.37
2022-09-20T09:27:05.006Z,17.36
2022-09-20T09:28:44.790Z,17.37
2022-09-20T09:30:24.562Z,17.36
2022-09-20T09:32:04.309Z,17.29
2022-09-20T09:33:44.122Z,17.26
2022-09-20T09:35:23.871Z,17.18
2022-09-20T09:38:43.396Z,17.09
2022-09-20T09:40:23.175Z,17.06
2022-09-20T09:42:02.936Z,17.09
2022-09-20T09:43:42.712Z,17.1
2022-09-20T09:45:22.487Z,17.12
2022-09-20T09:47:02.250Z,17.15
2022-09-20T09:48:42.019Z,17.14
2022-09-20T09:50:21.905Z,17.17
2022-09-20T09:52:01.559Z,17.19
2022-09-20T09:53:41.321Z,17.2
2022-09-20T09:55:21.180Z,17.23
2022-09-20T09:57:00.942Z,17.28
2022-09-20T09:58:40.647Z,17.31
2022-09-20T10:00:20.558Z,17.35
2022-09-20T10:02:00.168Z,17.37
2022-09-20T10:03:39.954Z,17.41
2022-09-20T10:05:19.788Z,17.44
2022-09-20T10:06:59.503Z,17.45
2022-09-20T10:08:39.265Z,17.46
2022-09-20T10:10:19.026Z,17.5
2022-09-20T10:11:58.805Z,17.53
2022-09-20T10:13:38.575Z,17.56
2022-09-20T10:15:18.341Z,17.58
2022-09-20T10:16:58.117Z,17.58
2022-09-20T10:18:37.875Z,17.61
2022-09-20T10:20:17.650Z,17.62
2022-09-20T10:21:57.422Z,17.66
2022-09-20T10:23:37.202Z,17.68
2022-09-20T10:25:16.964Z,17.68
2022-09-20T10:28:36.500Z,17.78
2022-09-20T10:30:16.267Z,17.82
2022-09-20T10:31:56.054Z,17.83
2022-09-20T10:33:35.889Z,17.89
2022-09-20T10:35:15.655Z,17.87
2022-09-20T10:36:55.361Z,17.91
2022-09-20T10:38:35.115Z,17.93
2022-09-20T10:40:14.904Z,17.96
2022-09-20T10:41:54.676Z,17.98
2022-09-20T10:43:34.438Z,18.03
2022-09-20T10:45:14.201Z,18.07
2022-09-20T10:46:53.970Z,18.09
2022-09-20T10:48:33.748Z,18.1
2022-09-20T10:50:13.559Z,18.12
2022-09-20T10:51:53.397Z,18.15
2022-09-20T10:53:33.173Z,18.16
2022-09-20T10:55:12.842Z,18.19
2022-09-20T10:56:52.673Z,18.2
2022-09-20T10:58:32.376Z,18.2
2022-09-20T11:00:12.144Z,18.24
2022-09-20T11:01:51.898Z,18.25
2022-09-20T11:03:31.673Z,18.27
2022-09-20T11:05:11.483Z,18.26
2022-09-20T11:06:51.231Z,18.25
2022-09-20T11:08:30.992Z,18.27
2022-09-20T11:10:10.852Z,18.32
2022-09-20T11:11:50.533Z,18.33
2022-09-20T11:13:30.304Z,18.31
2022-09-20T11:15:10.065Z,18.29
2022-09-20T11:16:49.840Z,18.33
2022-09-20T11:18:29.645Z,18.36
2022-09-20T11:20:09.415Z,18.36
2022-09-20T11:21:49.161Z,18.37
2022-09-20T11:23:28.914Z,18.37
2022-09-20T11:25:08.726Z,18.37
2022-09-20T11:26:48.467Z,18.37
2022-09-20T11:28:28.237Z,18.37
2022-09-20T11:30:07.994Z,18.34
2022-09-20T11:31:47.774Z,18.32
2022-09-20T11:33:27.547Z,18.31
2022-09-20T11:35:07.303Z,18.27
2022-09-20T11:36:47.095Z,18.23
2022-09-20T11:40:06.651Z,18.16
2022-09-20T11:41:46.470Z,18.16
2022-09-20T11:43:26.167Z,18.1
2022-09-20T11:45:05.926Z,18.08
2022-09-20T11:46:45.701Z,18.07
2022-09-20T11:48:25.481Z,18.03
2022-09-20T11:50:05.233Z,18.03
2022-09-20T11:51:44.998Z,18.02
2022-09-20T11:53:24.781Z,17.95
2022-09-20T11:55:04.556Z,17.95
2022-09-20T11:56:44.341Z,17.93
2022-09-20T11:58:24.084Z,17.92
2022-09-20T12:00:03.864Z,17.9
2022-09-20T12:01:43.622Z,17.89
2022-09-20T12:03:23.424Z,17.9
2022-09-20T12:05:03.161Z,17.87
2022-09-20T12:06:42.941Z,17.87
2022-09-20T12:08:22.782Z,17.85
2022-09-20T12:10:02.526Z,17.85
2022-09-20T12:11:42.254Z,17.85
2022-09-20T12:13:22.010Z,17.84
2022-09-20T12:15:01.791Z,17.84
2022-09-20T12:16:41.566Z,17.83
2022-09-20T12:18:21.322Z,17.79
2022-09-20T12:20:01.104Z,17.79
2022-09-20T12:21:40.870Z,17.82
2022-09-20T12:23:20.646Z,17.83
2022-09-20T12:25:00.414Z,17.81
2022-09-20T12:26:40.179Z,17.82
2022-09-20T12:28:19.948Z,17.81
2022-09-20T12:29:59.770Z,17.79
2022-09-20T12:31:39.494Z,17.77
2022-09-20T12:33:19.257Z,17.77
2022-09-20T12:36:38.816Z,17.74
2022-09-20T12:38:18.576Z,17.75
2022-09-20T12:41:38.122Z,17.75
2022-09-20T12:43:17.872Z,17.71
2022-09-20T12:44:57.655Z,17.74
2022-09-20T12:46:37.408Z,17.7
2022-09-20T12:48:17.207Z,17.71
2022-09-20T12:49:56.961Z,17.74
2022-09-20T12:51:36.726Z,17.7
2022-09-20T12:53:16.506Z,17.73
2022-09-20T12:54:56.268Z,17.74
2022-09-20T12:56:36.036Z,17.75
2022-09-20T12:58:15.820Z,17.76
2022-09-20T12:59:55.572Z,17.76
2022-09-20T13:01:35.346Z,17.79
2022-09-20T13:03:15.123Z,17.79
2022-09-20T13:04:54.884Z,17.79
2022-09-20T13:06:34.711Z,17.82
2022-09-20T13:08:14.434Z,17.85
2022-09-20T13:09:54.213Z,17.91
2022-09-20T13:11:33.982Z,17.91
2022-09-20T13:13:13.763Z,17.94
2022-09-20T13:14:53.615Z,17.94
2022-09-20T13:16:33.430Z,17.95
2022-09-20T13:18:13.043Z,17.95
2022-09-20T13:19:52.818Z,17.96
2022-09-20T13:21:32.604Z,17.99
2022-09-20T13:23:12.371Z,18.03
2022-09-20T13:24:52.134Z,18.01
2022-09-20T13:26:31.917Z,18.04
2022-09-20T13:28:11.672Z,18.08
2022-09-20T13:29:51.451Z,18.09
2022-09-20T13:31:31.229Z,18.1
2022-09-20T13:33:10.987Z,18.09
2022-09-20T13:34:50.821Z,18.1
2022-09-20T13:36:30.527Z,18.11
2022-09-20T13:38:10.297Z,18.11
2022-09-20T13:39:50.067Z,18.11
2022-09-20T13:41:29.846Z,18.11
2022-09-20T13:43:09.620Z,18.11
2022-09-20T13:44:49.374Z,18.12
2022-09-20T13:46:29.137Z,18.15
2022-09-20T13:48:08.908Z,18.14
2022-09-20T13:49:48.679Z,18.16
2022-09-20T13:51:28.457Z,18.14
2022-09-20T13:53:08.223Z,18.14
2022-09-20T13:54:48.075Z,18.14
2022-09-20T13:56:27.751Z,18.16
2022-09-20T13:58:07.519Z,18.15
2022-09-20T13:59:47.294Z,18.18
2022-09-20T14:01:27.053Z,18.19
2022-09-20T14:04:46.576Z,18.2
2022-09-20T14:06:26.359Z,18.2
2022-09-20T14:08:06.145Z,18.21
2022-09-20T14:09:45.875Z,18.23
2022-09-20T14:11:25.647Z,18.24
2022-09-20T14:13:05.414Z,18.24
2022-09-20T14:14:45.208Z,18.27
2022-09-20T14:16:24.959Z,18.26
2022-09-20T14:18:04.726Z,18.27
2022-09-20T14:19:44.484Z,18.27
2022-09-20T14:21:24.267Z,18.29
2022-09-20T14:23:04.013Z,18.31
2022-09-20T14:24:43.790Z,18.35
2022-09-20T14:26:23.552Z,18.34
2022-09-20T14:28:03.339Z,18.37
2022-09-20T14:29:43.127Z,18.37
2022-09-20T14:31:22.865Z,18.41
2022-09-20T14:33:02.622Z,18.42
2022-09-20T14:34:42.403Z,18.4
2022-09-20T14:36:22.175Z,18.45
2022-09-20T14:38:01.939Z,18.45
2022-09-20T14:39:41.701Z,18.46
2022-09-20T14:41:21.472Z,18.48
2022-09-20T14:43:01.264Z,18.52
2022-09-20T14:44:41.008Z,18.51
2022-09-20T14:46:20.765Z,18.5
2022-09-20T14:48:00.613Z,18.54
2022-09-20T14:49:40.395Z,18.53
2022-09-20T14:51:20.101Z,18.54
2022-09-20T14:52:59.850Z,18.54
2022-09-20T14:54:39.653Z,18.56
2022-09-20T14:56:19.363Z,18.58
2022-09-20T14:57:59.159Z,18.6
2022-09-20T14:59:38.932Z,18.61
2022-09-20T15:01:18.678Z,18.62
2022-09-20T15:02:58.443Z,18.66
2022-09-20T15:04:38.209Z,18.66
2022-09-20T15:06:17.968Z,18.69
2022-09-20T15:07:57.731Z,18.69
2022-09-20T15:09:37.517Z,18.67
2022-09-20T15:11:17.275Z,18.7
2022-09-20T15:12:57.051Z,18.7
2022-09-20T15:14:36.817Z,18.73
2022-09-20T15:16:16.588Z,18.73
2022-09-20T15:17:56.343Z,18.74
2022-09-20T15:19:36.138Z,18.77
2022-09-20T15:21:15.886Z,18.77
2022-09-20T15:22:55.652Z,18.74
2022-09-20T15:24:35.408Z,18.79
2022-09-20T15:26:15.215Z,18.79
2022-09-20T15:27:54.966Z,18.79
2022-09-20T15:29:34.719Z,18.85
2022-09-20T15:31:14.483Z,18.84
2022-09-20T15:32:54.261Z,18.86
2022-09-20T15:34:34.021Z,18.89
2022-09-20T15:36:13.782Z,18.9
2022-09-20T15:37:53.550Z,18.9
2022-09-20T15:39:33.335Z,18.92
2022-09-20T15:41:13.091Z,18.92
2022-09-20T15:42:52.867Z,18.95
2022-09-20T15:46:12.400Z,18.95
2022-09-20T15:49:31.922Z,18.93
2022-09-20T15:51:11.694Z,18.95
2022-09-20T15:52:51.482Z,18.95
2022-09-20T15:56:11.026Z,18.93
2022-09-20T15:57:50.772Z,18.92
2022-09-20T16:01:10.296Z,18.92
2022-09-20T16:02:50.074Z,18.9
2022-09-20T16:04:29.829Z,18.89
2022-09-20T16:06:09.589Z,18.89
2022-09-20T16:07:49.366Z,18.85
2022-09-20T16:09:29.144Z,18.85
2022-09-20T16:11:08.895Z,18.83
2022-09-20T16:12:48.673Z,18.79
2022-09-20T16:14:28.494Z,18.79
2022-09-20T16:16:08.229Z,18.79
2022-09-20T16:17:47.967Z,18.81
2022-09-20T16:19:27.738Z,18.81
2022-09-20T16:21:07.502Z,18.79
2022-09-20T16:22:47.267Z,18.81
2022-09-20T16:24:27.038Z,18.79
2022-09-20T16:26:06.807Z,18.77
2022-09-20T16:27:46.632Z,18.74
2022-09-20T16:29:26.334Z,18.76
2022-09-20T16:31:06.116Z,18.74
2022-09-20T16:32:45.881Z,18.73
2022-09-20T16:34:25.654Z,18.71
2022-09-20T16:36:05.436Z,18.7
2022-09-20T16:37:45.212Z,18.69
2022-09-20T16:39:24.961Z,18.69
2022-09-20T16:41:04.764Z,18.69
2022-09-20T16:42:44.544Z,18.67
2022-09-20T16:44:24.243Z,18.65
2022-09-20T16:46:04.019Z,18.62
2022-09-20T16:47:43.858Z,18.62
2022-09-20T16:49:23.563Z,18.61
2022-09-20T16:51:03.319Z,18.59
2022-09-20T16:52:43.087Z,18.54
2022-09-20T16:54:22.851Z,18.52
2022-09-20T16:56:02.622Z,18.46
2022-09-20T16:59:22.144Z,18.39
2022-09-20T17:01:01.906Z,18.37
2022-09-20T17:02:41.744Z,18.35
2022-09-20T17:04:21.491Z,18.33
2022-09-20T17:06:01.205Z,18.29
2022-09-20T17:07:40.979Z,18.27
2022-09-20T17:09:20.744Z,18.25
2022-09-20T17:11:00.513Z,18.2
2022-09-20T17:12:40.279Z,18.19
2022-09-20T17:14:20.031Z,18.14
2022-09-20T17:15:59.787Z,18.09
2022-09-20T17:17:39.554Z,18.09
2022-09-20T17:19:19.379Z,18.04
2022-09-20T17:20:59.083Z,18
2022-09-20T17:22:38.853Z,17.98
2022-09-20T17:24:18.612Z,17.93
2022-09-20T17:25:58.387Z,17.92
2022-09-20T17:27:38.150Z,17.9
2022-09-20T17:29:17.911Z,17.87
2022-09-20T17:30:57.674Z,17.85
2022-09-20T17:32:37.436Z,17.81
2022-09-20T17:34:17.204Z,17.77
2022-09-20T17:35:56.977Z,17.71
2022-09-20T17:37:36.750Z,17.67
2022-09-20T17:39:16.508Z,17.61
2022-09-20T17:40:56.269Z,17.54
2022-09-20T17:42:36.029Z,17.5
2022-09-20T17:44:15.782Z,17.45
2022-09-20T17:45:55.566Z,17.41
2022-09-20T17:47:35.311Z,17.36
2022-09-20T17:49:15.093Z,17.33
2022-09-20T17:50:54.853Z,17.28
2022-09-20T17:52:34.609Z,17.23
2022-09-20T17:54:14.374Z,17.18
2022-09-20T17:55:54.139Z,17.12
2022-09-20T17:57:33.905Z,17.1
2022-09-20T17:59:13.685Z,17.08
2022-09-20T18:00:53.434Z,17.04
2022-09-20T18:02:33.207Z,16.99
2022-09-20T18:04:13.065Z,16.95
2022-09-20T18:05:52.733Z,16.93
2022-09-20T18:07:32.536Z,16.87
2022-09-20T18:09:12.260Z,16.84
2022-09-20T18:10:52.034Z,16.81
2022-09-20T18:12:31.779Z,16.77
2022-09-20T18:14:11.600Z,16.75
2022-09-20T18:15:51.308Z,16.7
2022-09-20T18:17:31.090Z,16.67
2022-09-20T18:19:10.859Z,16.66
2022-09-20T18:20:50.603Z,16.61
2022-09-20T18:22:30.390Z,16.57
2022-09-20T18:24:10.130Z,16.54
2022-09-20T18:25:49.908Z,16.5
2022-09-20T18:27:29.675Z,16.45
2022-09-20T18:29:09.509Z,16.45
2022-09-20T18:30:49.192Z,16.41
2022-09-20T18:32:28.973Z,16.4
2022-09-20T18:34:08.722Z,16.36
2022-09-20T18:35:48.488Z,16.33
2022-09-20T18:37:28.248Z,16.28
2022-09-20T18:39:08.025Z,16.25
2022-09-20T18:40:47.781Z,16.21
2022-09-20T18:42:27.536Z,16.2
2022-09-20T18:44:07.309Z,16.16
2022-09-20T18:45:47.067Z,16.15
2022-09-20T18:47:26.834Z,16.11
2022-09-20T18:49:06.609Z,16.08
2022-09-20T18:50:46.377Z,16.06
2022-09-20T18:52:26.217Z,16.01
2022-09-20T18:54:05.917Z,16
2022-09-20T18:55:45.669Z,15.98
2022-09-20T18:57:25.443Z,15.94
2022-09-20T18:59:05.189Z,15.92
2022-09-20T19:00:44.950Z,15.88
2022-09-20T19:02:24.826Z,15.87
2022-09-20T19:04:04.495Z,15.85
2022-09-20T19:05:44.276Z,15.82
2022-09-20T19:07:24.036Z,15.8
2022-09-20T19:09:03.777Z,15.76
2022-09-20T19:10:43.554Z,15.73
2022-09-20T19:12:23.315Z,15.71
2022-09-20T19:14:03.083Z,15.7
2022-09-20T19:15:42.845Z,15.66
2022-09-20T19:17:22.602Z,15.65
2022-09-20T19:19:02.387Z,15.63
2022-09-20T19:20:42.135Z,15.6
2022-09-20T19:22:21.882Z,15.56
2022-09-20T19:24:01.679Z,15.56
2022-09-20T19:25:41.412Z,15.53
2022-09-20T19:27:21.201Z,15.49
2022-09-20T19:29:00.954Z,15.47
2022-09-20T19:32:20.491Z,15.43
2022-09-20T19:34:00.346Z,15.42
2022-09-20T19:35:40.009Z,15.4
2022-09-20T19:37:19.771Z,15.35
2022-09-20T19:38:59.541Z,15.34
2022-09-20T19:40:39.327Z,15.33
2022-09-20T19:42:19.084Z,15.29
2022-09-20T19:43:58.831Z,15.26
2022-09-20T19:45:38.585Z,15.25
2022-09-20T19:47:18.354Z,15.24
2022-09-20T19:48:58.114Z,15.2
2022-09-20T19:50:37.954Z,15.18
2022-09-20T19:52:17.692Z,15.15
2022-09-20T19:53:57.426Z,15.15
2022-09-20T19:55:37.185Z,15.13
2022-09-20T19:57:16.961Z,15.11
2022-09-20T19:58:56.715Z,15.08
2022-09-20T20:00:36.504Z,15.07
2022-09-20T20:02:16.239Z,15.04
2022-09-20T20:03:56.123Z,15.02
2022-09-20T20:05:35.804Z,15.02
2022-09-20T20:07:15.579Z,14.98
2022-09-20T20:08:55.290Z,14.97
2022-09-20T20:10:35.115Z,14.96
2022-09-20T20:12:14.834Z,14.93
2022-09-20T20:13:54.590Z,14.92
2022-09-20T20:15:34.382Z,14.88
2022-09-20T20:18:53.876Z,14.85
2022-09-20T20:20:33.677Z,14.84
2022-09-20T20:22:13.414Z,14.82
2022-09-20T20:23:53.192Z,14.79
2022-09-20T20:25:32.944Z,14.78
2022-09-20T20:28:52.468Z,14.74
2022-09-20T20:30:32.234Z,14.72
2022-09-20T20:32:12.010Z,14.7
2022-09-20T20:33:51.784Z,14.71
2022-09-20T20:35:31.550Z,14.69
2022-09-20T20:37:11.289Z,14.66
2022-09-20T20:38:51.060Z,14.66
2022-09-20T20:40:30.826Z,14.62
2022-09-20T20:42:10.577Z,14.61
2022-09-20T20:43:50.344Z,14.61
2022-09-20T20:45:30.103Z,14.58
2022-09-20T20:47:09.886Z,14.56
2022-09-20T20:48:49.650Z,14.55
2022-09-20T20:50:29.456Z,14.54
2022-09-20T20:52:09.169Z,14.51
2022-09-20T20:53:48.941Z,14.51
2022-09-20T20:55:28.737Z,14.49
2022-09-20T20:57:08.469Z,14.48
2022-09-20T20:58:48.229Z,14.45
2022-09-20T21:00:27.982Z,14.44
2022-09-20T21:02:07.751Z,14.42
2022-09-20T21:03:47.532Z,14.42
2022-09-20T21:05:27.286Z,14.39
2022-09-20T21:08:46.817Z,14.36
2022-09-20T21:10:26.583Z,14.36
2022-09-20T21:12:06.338Z,14.34
2022-09-20T21:13:46.100Z,14.32
2022-09-20T21:15:25.862Z,14.3
2022-09-20T21:17:05.625Z,14.28
2022-09-20T21:18:45.391Z,14.26
2022-09-20T21:20:25.196Z,14.25
2022-09-20T21:22:04.954Z,14.25
2022-09-20T21:23:44.688Z,14.22
2022-09-20T21:25:24.443Z,14.21
2022-09-20T21:27:04.208Z,14.2
2022-09-20T21:28:43.982Z,14.18
2022-09-20T21:30:23.747Z,14.18
2022-09-20T21:32:03.523Z,14.16
2022-09-20T21:33:43.340Z,14.14
2022-09-20T21:35:23.042Z,14.13
2022-09-20T21:37:02.815Z,14.13
2022-09-20T21:38:42.567Z,14.09
2022-09-20T21:40:22.330Z,14.09
2022-09-20T21:42:02.104Z,14.08
2022-09-20T21:43:41.866Z,14.07
2022-09-20T21:45:21.617Z,14.05
2022-09-20T21:47:01.393Z,14.04
2022-09-20T21:48:41.160Z,14.01
2022-09-20T21:50:20.923Z,14.01
2022-09-20T21:52:00.681Z,13.99
2022-09-20T21:53:40.449Z,13.98
2022-09-20T21:55:20.209Z,13.95
2022-09-20T21:56:59.976Z,13.96
2022-09-20T21:58:39.740Z,13.93
2022-09-20T22:00:19.520Z,13.93
2022-09-20T22:01:59.272Z,13.92
2022-09-20T22:03:39.038Z,13.88
2022-09-20T22:05:18.807Z,13.87
2022-09-20T22:06:58.565Z,13.88
2022-09-20T22:08:38.321Z,13.85
2022-09-20T22:10:18.108Z,13.84
2022-09-20T22:11:57.968Z,13.83
2022-09-20T22:13:37.671Z,13.83